Time;durP1;ratioP1;P1;durP2;ratioP2;P2;SDS_P1;SDS_P2;PMS_P1;PMS_P2;Temp;Humidity;BMP_temperature;BMP_pressure;BME280_temperature;BME280_humidity;BME280_pressure;Samples;Min_cycle;Max_cycle;Signal;HPM_P1;HPM_P2
2024/01/06 00:01:04;;;;;;;7.32;2.58;;;;;;;-13.26;52.70;99040.47;5046340;28;20592;-60
2024/01/06 00:03:31;;;;;;;5.10;2.55;;;;;;;-13.16;52.89;99040.13;5067798;28;20063;-60
2024/01/06 00:05:59;;;;;;;5.70;2.60;;;;;;;-12.98;52.98;99040.13;5067282;28;20066;-57
2024/01/06 00:08:25;;;;;;;7.07;2.30;;;;;;;-12.85;52.98;99029.03;5080968;28;20035;-62
2024/01/06 00:10:52;;;;;;;6.40;3.10;;;;;;;-13.04;53.60;99033.19;5065328;28;20044;-55
2024/01/06 00:13:19;;;;;;;5.45;2.20;;;;;;;-12.98;54.43;99025.94;5049947;28;20527;-58
2024/01/06 00:15:45;;;;;;;6.18;2.83;;;;;;;-12.80;54.23;99032.59;5081455;28;20094;-59
2024/01/06 00:18:11;;;;;;;6.95;3.10;;;;;;;-12.73;54.46;99027.09;5082883;28;20572;-56
2024/01/06 00:20:38;;;;;;;9.32;3.17;;;;;;;-13.00;54.12;98986.66;5080716;28;20135;-57
2024/01/06 00:23:04;;;;;;;4.70;2.22;;;;;;;-12.79;54.64;99012.66;5062562;28;20513;-57
2024/01/06 00:25:30;;;;;;;7.68;2.78;;;;;;;-12.73;54.64;99019.59;5068831;28;20044;-59
2024/01/06 00:27:56;;;;;;;4.75;2.88;;;;;;;-13.05;54.51;98980.59;5063516;28;20047;-58
2024/01/06 00:30:23;;;;;;;5.25;1.80;;;;;;;-12.96;54.50;99019.38;5061281;28;20440;-59
2024/01/06 00:32:49;;;;;;;9.70;3.05;;;;;;;-13.08;54.88;99016.28;5081051;28;20048;-60
2024/01/06 00:35:16;;;;;;;6.80;3.28;;;;;;;-13.15;54.79;99024.34;5062854;28;20058;-59
2024/01/06 00:37:42;;;;;;;9.13;3.33;;;;;;;-13.11;54.62;99022.84;5076521;28;20809;-57
2024/01/06 00:40:10;;;;;;;7.25;2.92;;;;;;;-12.99;54.76;99015.91;5061751;28;20523;-59
2024/01/06 00:42:36;;;;;;;10.20;3.92;;;;;;;-12.89;54.80;99001.38;5080429;28;20040;-60
2024/01/06 00:45:04;;;;;;;13.95;2.50;;;;;;;-12.79;55.42;99011.81;5045562;28;20046;-59
2024/01/06 00:47:30;;;;;;;5.93;2.55;;;;;;;-12.76;55.16;99015.31;5077047;28;20500;-60
2024/01/06 00:49:56;;;;;;;7.25;3.08;;;;;;;-12.69;55.41;99013.94;5071346;28;20036;-60
2024/01/06 00:52:22;;;;;;;5.30;2.40;;;;;;;-12.76;55.15;99016.94;5068406;28;20043;-59
2024/01/06 00:54:49;;;;;;;6.85;2.33;;;;;;;-12.86;55.57;99025.66;5068956;28;20042;-61
2024/01/06 00:57:15;;;;;;;8.90;2.60;;;;;;;-13.36;55.62;98985.81;5064956;28;20046;-58
2024/01/06 00:59:42;;;;;;;5.82;1.63;;;;;;;-13.32;56.29;99023.53;5078470;28;20068;-60
2024/01/06 01:02:08;;;;;;;11.45;3.22;;;;;;;-13.41;56.11;99033.09;5078363;28;20045;-59
2024/01/06 01:04:34;;;;;;;8.32;3.60;;;;;;;-13.45;56.59;99031.22;5083180;28;20056;-59
2024/01/06 01:07:00;;;;;;;9.20;2.55;;;;;;;-13.43;57.16;99016.28;5076211;28;20552;-60
2024/01/06 01:09:27;;;;;;;9.32;2.35;;;;;;;-13.30;57.30;99030.25;5087786;28;20047;-58
2024/01/06 01:11:53;;;;;;;11.45;2.90;;;;;;;-13.29;57.23;99027.81;5084772;28;20058;-58
2024/01/06 01:14:20;;;;;;;4.68;1.75;;;;;;;-13.39;57.24;99035.66;5084165;28;20040;-56
2024/01/06 01:16:46;;;;;;;11.70;2.67;;;;;;;-13.55;56.88;99050.72;5081788;28;20040;-59
2024/01/06 01:19:14;;;;;;;6.05;2.60;;;;;;;-13.61;56.84;99038.78;5085350;28;20518;-60
2024/01/06 01:21:41;;;;;;;4.55;2.60;;;;;;;-14.07;57.64;98953.19;5085292;28;20032;-59
2024/01/06 01:24:07;;;;;;;7.78;2.17;;;;;;;-13.82;57.48;99007.72;5081804;28;20040;-60
2024/01/06 01:26:33;;;;;;;7.65;2.95;;;;;;;-13.58;57.90;98991.44;5067704;28;20042;-63
2024/01/06 01:29:00;;;;;;;9.38;2.83;;;;;;;-13.31;57.45;99034.41;5065879;28;20043;-63
2024/01/06 01:31:26;;;;;;;6.68;2.25;;;;;;;-13.48;56.76;98997.72;5068516;28;20039;-63
2024/01/06 01:33:53;;;;;;;3.50;1.67;;;;;;;-13.26;56.28;99024.63;5067461;28;20040;-62
2024/01/06 01:36:22;;;;;;;8.55;2.92;;;;;;;-13.40;57.19;99024.81;5084266;28;20089;-60
2024/01/06 01:38:48;;;;;;;5.50;2.35;;;;;;;-13.61;56.82;98997.94;5052097;28;20419;-59
2024/01/06 01:41:15;;;;;;;6.13;2.83;;;;;;;-13.55;57.47;99036.53;5084564;28;20725;-58
2024/01/06 01:43:41;;;;;;;3.80;1.63;;;;;;;-13.54;56.74;99029.91;5048363;28;20040;-59
2024/01/06 01:46:08;;;;;;;4.90;2.30;;;;;;;-13.97;56.61;98940.38;5083709;28;20126;-58
2024/01/06 01:48:34;;;;;;;6.22;2.42;;;;;;;-13.43;56.72;99021.28;5079695;28;20530;-59
2024/01/06 01:51:00;;;;;;;2.70;1.33;;;;;;;-13.37;56.75;99014.09;5063792;28;20786;-58
2024/01/06 01:53:27;;;;;;;2.80;1.48;;;;;;;-13.20;57.09;99008.28;5073734;28;20036;-58
2024/01/06 01:55:54;;;;;;;7.15;3.10;;;;;;;-13.43;56.32;98978.81;5080799;28;20032;-60
2024/01/06 01:58:20;;;;;;;8.15;2.90;;;;;;;-13.35;56.85;98978.41;5036995;28;20044;-59
2024/01/06 02:00:46;;;;;;;5.43;2.08;;;;;;;-13.35;55.93;99005.91;5084611;28;20071;-57
2024/01/06 02:03:14;;;;;;;6.53;2.42;;;;;;;-13.41;57.05;99010.59;5082787;28;20056;-60
2024/01/06 02:05:41;;;;;;;9.00;3.10;;;;;;;-13.47;56.67;98985.31;5082410;28;20039;-58
2024/01/06 02:08:08;;;;;;;3.53;1.85;;;;;;;-13.29;56.96;99007.81;5082265;28;20040;-59
2024/01/06 02:10:34;;;;;;;7.15;2.58;;;;;;;-13.35;56.65;98993.41;5069122;28;20040;-58
2024/01/06 02:13:09;;;;;;;5.97;2.80;;;;;;;-13.09;57.26;99003.75;5081279;28;20078;-62
2024/01/06 02:15:35;;;;;;;4.88;1.58;;;;;;;-13.09;56.65;99022.13;5065699;28;20040;-62
2024/01/06 02:18:01;;;;;;;6.50;2.70;;;;;;;-13.29;56.74;99017.81;5073043;28;20082;-57
2024/01/06 02:20:30;;;;;;;4.65;1.77;;;;;;;-13.59;57.05;98976.34;5077040;28;20048;-59
2024/01/06 02:22:58;;;;;;;4.88;2.80;;;;;;;-13.47;57.28;99019.44;5049797;28;20641;-62
2024/01/06 02:25:24;;;;;;;4.20;2.22;;;;;;;-13.26;57.36;99017.97;5084695;28;20044;-63
2024/01/06 02:27:51;;;;;;;6.60;2.38;;;;;;;-13.40;57.17;98974.84;5066884;28;20044;-64
2024/01/06 02:30:17;;;;;;;7.28;2.17;;;;;;;-13.30;57.41;98996.13;5071468;28;20040;-62
2024/01/06 02:32:44;;;;;;;5.13;2.13;;;;;;;-13.09;57.23;99026.25;5065118;28;20122;-62
2024/01/06 02:35:10;;;;;;;8.52;3.10;;;;;;;-13.12;57.04;99029.47;5070584;28;20082;-61
2024/01/06 02:37:36;;;;;;;1.65;1.02;;;;;;;-13.09;57.85;99033.75;5081455;28;20214;-61
2024/01/06 02:40:02;;;;;;;9.13;2.30;;;;;;;-13.22;57.48;99036.47;5065595;28;20534;-62
2024/01/06 02:42:29;;;;;;;4.20;2.13;;;;;;;-13.22;58.23;99022.34;5053328;28;20052;-63
2024/01/06 02:44:55;;;;;;;6.15;1.95;;;;;;;-12.96;58.56;99024.38;5087644;28;20768;-62
2024/01/06 02:47:22;;;;;;;5.45;2.65;;;;;;;-13.30;58.03;98981.13;5083977;28;20040;-64
2024/01/06 02:49:48;;;;;;;8.95;3.40;;;;;;;-13.38;58.77;98994.88;5078259;28;20131;-63
2024/01/06 02:52:14;;;;;;;6.47;2.70;;;;;;;-13.06;58.25;99026.38;5081249;28;20097;-62
2024/01/06 02:54:40;;;;;;;3.30;2.22;;;;;;;-12.99;58.17;99026.75;5079449;28;20096;-62
2024/01/06 02:57:07;;;;;;;6.63;2.72;;;;;;;-13.01;58.59;99018.31;5082011;28;20044;-62
2024/01/06 02:59:34;;;;;;;6.38;2.85;;;;;;;-12.83;58.50;99008.31;5067972;28;20427;-63
2024/01/06 03:02:02;;;;;;;8.93;2.95;;;;;;;-12.65;58.02;99014.16;5080001;28;20778;-62
2024/01/06 03:04:28;;;;;;;6.88;2.28;;;;;;;-12.61;58.50;99015.16;5066362;28;20101;-62
2024/01/06 03:06:54;;;;;;;8.20;2.63;;;;;;;-12.52;58.20;99020.59;5081542;28;20537;-62
2024/01/06 03:09:21;;;;;;;5.63;2.03;;;;;;;-12.61;58.03;99010.16;5097196;28;20047;-63
2024/01/06 03:11:48;;;;;;;2.63;1.65;;;;;;;-12.88;57.95;99013.13;5068936;28;20104;-62
2024/01/06 03:14:14;;;;;;;4.53;1.95;;;;;;;-13.19;58.31;99016.63;5081263;28;20723;-64
2024/01/06 03:16:40;;;;;;;2.10;1.70;;;;;;;-13.33;58.68;99005.97;5067176;28;20108;-63
2024/01/06 03:19:06;;;;;;;6.80;2.80;;;;;;;-13.40;58.27;99002.31;5083631;28;20047;-64
2024/01/06 03:21:32;;;;;;;5.78;2.38;;;;;;;-13.41;58.63;99008.09;5080100;28;20067;-64
2024/01/06 03:23:58;;;;;;;2.80;1.52;;;;;;;-13.44;58.14;98997.09;5065765;28;20074;-64
2024/01/06 03:26:25;;;;;;;5.43;2.85;;;;;;;-13.23;58.94;99012.25;5080163;28;20043;-64
2024/01/06 03:28:51;;;;;;;5.90;2.85;;;;;;;-13.14;58.85;99007.72;5085114;28;20072;-58
2024/01/06 03:31:17;;;;;;;4.97;2.50;;;;;;;-13.05;58.33;99011.47;5092157;28;20069;-64
2024/01/06 03:33:44;;;;;;;10.40;3.28;;;;;;;-12.99;58.31;99011.75;5067376;28;20072;-63
2024/01/06 03:36:12;;;;;;;6.57;2.53;;;;;;;-12.88;58.45;99007.25;5073622;28;20052;-64
2024/01/06 03:38:38;;;;;;;5.57;2.60;;;;;;;-12.83;58.33;99005.81;5077708;28;20409;-63
2024/01/06 03:41:05;;;;;;;6.18;2.67;;;;;;;-13.12;57.37;98971.09;5077810;28;20039;-63
2024/01/06 03:43:31;;;;;;;11.48;3.53;;;;;;;-12.97;57.91;99010.16;5078369;28;20036;-66
2024/01/06 03:45:59;;;;;;;11.60;3.67;;;;;;;-12.73;57.64;99017.97;5073275;28;20559;-64
2024/01/06 03:48:26;;;;;;;8.83;3.43;;;;;;;-12.83;57.37;99008.31;5081776;28;20051;-63
2024/01/06 03:50:52;;;;;;;6.80;2.88;;;;;;;-12.95;57.24;99031.13;5081809;28;20773;-63
2024/01/06 03:53:22;;;;;;;5.05;2.58;;;;;;;-13.08;57.40;99021.31;5078389;28;20051;-65
2024/01/06 03:55:48;;;;;;;7.30;2.55;;;;;;;-13.40;57.70;98998.97;5069780;28;20102;-64
2024/01/06 03:58:14;;;;;;;7.15;3.53;;;;;;;-13.50;57.52;98985.16;5095859;28;20101;-64
2024/01/06 04:00:41;;;;;;;3.70;1.75;;;;;;;-13.36;57.20;98999.19;5077875;28;20036;-64
2024/01/06 04:03:08;;;;;;;5.28;2.65;;;;;;;-13.40;57.33;98989.84;5082428;27;20031;-63
2024/01/06 04:05:34;;;;;;;8.65;2.90;;;;;;;-13.06;57.05;99021.38;5082971;28;20047;-63
2024/01/06 04:08:00;;;;;;;8.88;3.03;;;;;;;-13.33;57.55;98973.47;5063403;28;20086;-63
2024/01/06 04:10:26;;;;;;;10.05;3.75;;;;;;;-12.89;57.67;99020.53;5081372;28;20524;-63
2024/01/06 04:12:53;;;;;;;7.07;3.15;;;;;;;-12.82;56.93;99026.69;5083096;28;20088;-63
2024/01/06 04:15:22;;;;;;;5.47;3.08;;;;;;;-13.04;56.52;99008.19;5068599;28;20507;-63
2024/01/06 04:17:49;;;;;;;6.43;3.35;;;;;;;-12.95;56.82;99021.09;5068196;28;20470;-64
2024/01/06 04:20:15;;;;;;;10.02;3.28;;;;;;;-12.84;57.25;99018.25;5064468;28;20105;-64
2024/01/06 04:22:42;;;;;;;9.50;3.38;;;;;;;-12.81;57.02;99028.38;5068208;28;21722;-63
2024/01/06 04:25:08;;;;;;;9.98;4.22;;;;;;;-12.79;57.19;99024.31;5036432;28;20075;-66
2024/01/06 04:27:40;;;;;;;10.60;3.08;;;;;;;-12.92;57.21;98991.22;5066212;28;20074;-64
2024/01/06 04:30:06;;;;;;;;;;;;;;;-12.61;56.39;99030.19;5082528;28;20588;-64
2024/01/06 04:32:33;;;;;;;7.53;3.15;;;;;;;-12.53;56.67;99028.88;5058591;28;20030;-63
2024/01/06 04:34:59;;;;;;;8.70;2.53;;;;;;;-12.41;56.73;99029.44;5074617;28;20127;-64
2024/01/06 04:37:25;;;;;;;7.38;3.28;;;;;;;-12.58;56.59;99026.16;5082897;28;20040;-63
2024/01/06 04:39:51;;;;;;;4.22;2.28;;;;;;;-12.63;56.95;99026.75;5078128;28;20036;-64
2024/01/06 04:42:19;;;;;;;9.77;4.18;;;;;;;-12.62;57.08;99025.97;5077389;28;20048;-64
2024/01/06 04:44:45;;;;;;;9.52;3.60;;;;;;;-12.69;56.72;99032.31;5087541;28;20092;-60
2024/01/06 04:47:12;;;;;;;12.77;2.40;;;;;;;-12.71;56.43;99023.88;5082101;28;20052;-64
2024/01/06 04:49:38;;;;;;;9.63;3.67;;;;;;;-12.63;56.92;99034.25;5074379;28;20036;-64
2024/01/06 04:52:04;;;;;;;5.60;2.60;;;;;;;-12.65;56.39;99035.81;5058542;28;20135;-65
2024/01/06 04:54:31;;;;;;;6.28;2.53;;;;;;;-12.70;56.23;99040.59;5083304;28;20060;-64
2024/01/06 04:56:58;;;;;;;10.45;4.07;;;;;;;-12.69;56.74;99038.97;5060129;28;20123;-64
2024/01/06 04:59:25;;;;;;;10.52;3.67;;;;;;;-12.70;56.38;99040.59;5089922;28;20061;-64
2024/01/06 05:01:52;;;;;;;10.90;3.72;;;;;;;-12.73;56.11;99047.97;5077368;28;20133;-65
2024/01/06 05:04:19;;;;;;;10.55;3.85;;;;;;;-12.88;56.65;99029.75;5074379;28;20046;-63
2024/01/06 05:06:45;;;;;;;10.13;3.33;;;;;;;-12.79;56.86;99046.84;5082256;28;20161;-64
2024/01/06 05:09:11;;;;;;;7.35;3.22;;;;;;;-12.93;56.29;99056.22;5073516;28;20044;-64
2024/01/06 05:11:37;;;;;;;5.32;2.28;;;;;;;-12.97;56.85;99051.81;5088695;28;20036;-65
2024/01/06 05:14:04;;;;;;;10.18;2.88;;;;;;;-12.93;56.77;99053.72;5058612;28;20048;-64
2024/01/06 05:16:30;;;;;;;13.70;3.28;;;;;;;-13.18;56.49;99055.84;5043383;28;20073;-64
2024/01/06 05:18:56;;;;;;;9.77;4.63;;;;;;;-13.35;57.21;99052.53;5079592;28;20033;-63
2024/01/06 05:21:22;;;;;;;9.30;4.18;;;;;;;-13.19;57.55;99056.63;5072805;28;20093;-64
2024/01/06 05:23:48;;;;;;;12.38;4.28;;;;;;;-13.76;56.76;98988.88;5047949;28;20048;-63
2024/01/06 05:26:15;;;;;;;15.55;4.32;;;;;;;-13.34;57.04;99061.72;5082311;28;20040;-65
2024/01/06 05:28:42;;;;;;;13.07;3.75;;;;;;;-14.10;57.05;98984.63;5084544;28;20141;-64
2024/01/06 05:31:08;;;;;;;9.30;4.22;;;;;;;-13.83;57.02;99065.94;5080355;28;20522;-63
2024/01/06 05:33:34;;;;;;;4.97;2.55;;;;;;;-13.89;57.09;99069.00;5070236;28;20442;-64
2024/01/06 05:36:00;;;;;;;9.63;2.97;;;;;;;-14.06;57.48;99066.41;5055004;28;20051;-64
2024/01/06 05:38:27;;;;;;;3.58;2.15;;;;;;;-14.34;57.38;99015.03;5071008;28;20052;-64
2024/01/06 05:40:54;;;;;;;6.13;2.70;;;;;;;-14.18;57.38;99051.63;5077335;28;20782;-61
2024/01/06 05:43:21;;;;;;;8.10;3.20;;;;;;;-14.27;58.01;99054.53;5064177;28;20035;-63
2024/01/06 05:45:47;;;;;;;4.10;2.47;;;;;;;-14.18;58.10;99051.63;5065389;28;20047;-63
2024/01/06 05:48:14;;;;;;;16.05;4.43;;;;;;;-14.17;58.02;99046.72;5077677;28;20057;-63
2024/01/06 05:50:40;;;;;;;8.00;3.75;;;;;;;-14.22;57.58;99050.63;5071698;28;20578;-64
2024/01/06 05:53:07;;;;;;;8.13;4.00;;;;;;;-14.05;58.30;99051.50;5079718;28;20050;-62
2024/01/06 05:55:33;;;;;;;12.52;3.88;;;;;;;-14.01;57.47;99055.00;5079534;28;20142;-64
2024/01/06 05:58:00;;;;;;;9.20;3.30;;;;;;;-14.18;57.22;99037.50;5050189;28;20051;-66
2024/01/06 06:00:27;;;;;;;8.57;4.43;;;;;;;-14.17;56.95;99053.34;5077091;28;20052;-64
2024/01/06 06:02:53;;;;;;;5.50;3.53;;;;;;;-14.54;57.40;98999.84;5084618;28;20036;-64
2024/01/06 06:05:20;;;;;;;11.60;4.30;;;;;;;-14.11;57.32;99056.19;5074428;28;20043;-64
2024/01/06 06:07:46;;;;;;;11.40;4.00;;;;;;;-13.75;58.22;99075.53;5076305;28;20055;-64
2024/01/06 06:10:12;;;;;;;11.15;4.63;;;;;;;-13.48;57.83;99080.19;5071955;28;20509;-65
2024/01/06 06:12:39;;;;;;;12.52;4.65;;;;;;;-13.46;56.82;99081.16;5064277;28;20046;-64
2024/01/06 06:15:06;;;;;;;13.18;3.40;;;;;;;-13.39;57.54;99074.00;5056346;28;20059;-63
2024/01/06 06:17:33;;;;;;;9.02;3.55;;;;;;;-13.41;57.26;99078.09;5085522;28;20035;-64
2024/01/06 06:19:59;;;;;;;11.52;3.75;;;;;;;-13.37;57.12;99076.59;5094641;28;20483;-63
2024/01/06 06:22:29;;;;;;;9.73;3.67;;;;;;;-13.51;57.01;99085.91;5066616;28;20113;-64
2024/01/06 06:24:57;;;;;;;9.25;3.60;;;;;;;-13.46;57.36;99083.66;5066870;28;20068;-65
2024/01/06 06:27:23;;;;;;;8.82;3.47;;;;;;;-13.26;57.11;99090.47;5067566;28;20082;-66
2024/01/06 06:29:50;;;;;;;12.05;4.05;;;;;;;-13.05;57.05;99089.00;5080420;28;20070;-63
2024/01/06 06:32:16;;;;;;;11.23;4.20;;;;;;;-13.33;56.42;99051.81;5090696;28;20044;-65
2024/01/06 06:34:43;;;;;;;15.90;3.90;;;;;;;-13.33;56.82;99043.44;5064295;28;20474;-64
2024/01/06 06:37:09;;;;;;;9.20;3.90;;;;;;;-13.17;56.58;99088.41;5083332;28;20221;-65
2024/01/06 06:39:36;;;;;;;9.88;3.97;;;;;;;-13.33;56.84;99089.31;5088855;28;20559;-65
2024/01/06 06:42:05;;;;;;;13.38;3.85;;;;;;;-13.34;56.91;99089.22;5085441;28;20051;-63
2024/01/06 06:44:32;;;;;;;11.48;4.70;;;;;;;-13.28;56.22;99096.16;5079282;28;20047;-64
2024/01/06 06:46:58;;;;;;;11.82;4.45;;;;;;;-13.18;56.46;99101.69;5073666;28;20048;-63
2024/01/06 06:49:24;;;;;;;11.02;2.80;;;;;;;-13.03;56.57;99102.41;5051275;28;20040;-64
2024/01/06 06:51:51;;;;;;;4.68;2.35;;;;;;;-13.13;56.85;99107.78;5076937;28;20089;-65
2024/01/06 06:54:17;;;;;;;8.80;4.05;;;;;;;-13.21;56.46;99110.69;5063765;28;20051;-65
2024/01/06 06:56:43;;;;;;;5.10;3.08;;;;;;;-13.46;56.27;99107.00;5055851;28;20039;-65
2024/01/06 06:59:10;;;;;;;9.23;3.13;;;;;;;-13.37;56.53;99107.44;5083519;28;20063;-64
2024/01/06 07:01:36;;;;;;;7.20;3.38;;;;;;;-13.17;56.89;99100.06;5080263;28;20040;-65
2024/01/06 07:04:03;;;;;;;1.83;1.35;;;;;;;-13.00;56.07;99102.56;5069878;28;20035;-66
2024/01/06 07:06:29;;;;;;;13.90;4.65;;;;;;;-12.99;55.96;99118.44;5080893;28;20473;-59
2024/01/06 07:08:56;;;;;;;4.45;1.90;;;;;;;-13.03;56.36;99114.09;5066906;28;20036;-65
2024/01/06 07:11:22;;;;;;;16.95;5.60;;;;;;;-13.24;56.42;99106.44;5078173;28;20045;-65
2024/01/06 07:13:50;;;;;;;13.25;3.53;;;;;;;-13.28;56.03;99114.53;5068802;28;20043;-66
2024/01/06 07:16:16;;;;;;;13.20;4.10;;;;;;;-13.37;55.95;99114.94;5047514;28;20075;-65
2024/01/06 07:18:42;;;;;;;16.70;5.43;;;;;;;-13.75;56.15;99070.53;5076247;28;20040;-65
2024/01/06 07:21:08;;;;;;;12.98;5.20;;;;;;;-13.31;56.56;99109.41;5063195;28;20550;-64
2024/01/06 07:23:37;;;;;;;12.90;4.45;;;;;;;-13.41;56.82;99062.22;5081971;28;20086;-64
2024/01/06 07:26:04;;;;;;;6.50;3.17;;;;;;;-13.19;56.32;99067.50;5064678;28;20041;-64
2024/01/06 07:28:30;;;;;;;12.27;4.93;;;;;;;-13.03;56.35;99111.59;5081096;28;20044;-64
2024/01/06 07:30:57;;;;;;;19.92;5.60;;;;;;;-12.79;56.28;99110.25;5074464;28;20067;-65
2024/01/06 07:33:24;;;;;;;11.18;4.63;;;;;;;-12.58;55.93;99117.91;5079690;28;20557;-65
2024/01/06 07:35:54;;;;;;;10.23;4.10;;;;;;;-12.78;55.43;99106.09;5076159;28;20032;-64
2024/01/06 07:38:20;;;;;;;;;;;;;;;-12.60;56.13;99106.94;5062695;28;20036;-64
2024/01/06 07:40:46;;;;;;;10.25;4.10;;;;;;;-12.69;55.73;99106.53;5065844;28;19920;-66
2024/01/06 07:43:12;;;;;;;12.32;5.45;;;;;;;-12.39;55.83;99119.59;5071562;28;20040;-62
2024/01/06 07:45:39;;;;;;;8.45;2.90;;;;;;;-12.32;55.66;99116.63;5082029;28;20526;-60
2024/01/06 07:48:06;;;;;;;9.95;4.40;;;;;;;-12.58;55.53;99122.91;5073319;28;20040;-63
2024/01/06 07:50:32;;;;;;;11.07;5.28;;;;;;;-12.63;55.41;99072.66;5080187;28;20119;-62
2024/01/06 07:52:58;;;;;;;17.10;5.03;;;;;;;-12.05;55.59;99127.91;5082454;28;20044;-60
2024/01/06 07:55:28;;;;;;;15.60;5.28;;;;;;;-11.83;55.46;99110.53;5082750;28;20040;-60
2024/01/06 07:57:54;;;;;;;;;;;;;;;-11.67;55.08;99105.31;5073130;28;20106;-61
2024/01/06 08:00:21;;;;;;;10.27;4.18;;;;;;;-11.49;54.81;99104.41;5083704;28;19916;-63
2024/01/06 08:02:47;;;;;;;15.80;5.72;;;;;;;-11.34;54.75;99112.59;5061657;28;20477;-63
2024/01/06 08:05:13;;;;;;;14.52;4.82;;;;;;;-11.20;54.85;99101.50;5073248;28;20610;-64
2024/01/06 08:07:39;;;;;;;18.55;5.13;;;;;;;-11.07;54.59;99111.22;5076757;28;20040;-64
2024/01/06 08:10:05;;;;;;;12.30;4.00;;;;;;;-11.22;53.41;99103.94;5081017;28;20125;-63
2024/01/06 08:12:32;;;;;;;19.77;5.18;;;;;;;-11.79;54.20;99032.19;5077089;28;20415;-64
2024/01/06 08:14:58;;;;;;;10.95;5.25;;;;;;;-11.54;54.18;99058.22;5061920;28;20084;-65
2024/01/06 08:17:25;;;;;;;17.88;5.13;;;;;;;-11.40;54.20;99055.50;5076483;28;20047;-60
2024/01/06 08:19:51;;;;;;;17.00;5.25;;;;;;;-11.08;53.77;99083.56;5065906;28;20818;-63
2024/01/06 08:22:17;;;;;;;19.95;6.45;;;;;;;-11.10;53.73;99082.66;5076635;28;20123;-65
2024/01/06 08:24:43;;;;;;;18.52;6.47;;;;;;;-11.19;53.76;99040.47;5063861;28;20091;-64
2024/01/06 08:27:09;;;;;;;13.02;5.72;;;;;;;-10.85;53.74;99087.88;5070105;28;20055;-59
2024/01/06 08:29:35;;;;;;;14.38;5.75;;;;;;;-11.14;53.63;99049.03;5074068;28;20043;-60
2024/01/06 08:32:02;;;;;;;14.77;5.03;;;;;;;-10.79;53.55;99078.94;5087596;28;20093;-61
2024/01/06 08:34:29;;;;;;;14.57;4.95;;;;;;;-10.69;52.95;99082.66;5082373;28;20535;-60
2024/01/06 08:36:55;;;;;;;19.67;6.63;;;;;;;-11.02;52.95;99068.75;5068054;28;20534;-62
2024/01/06 08:39:22;;;;;;;21.08;6.78;;;;;;;-11.10;52.57;99078.50;5077645;28;20039;-61
2024/01/06 08:41:48;;;;;;;22.60;6.65;;;;;;;-11.22;53.01;99045.38;5078726;28;20494;-59
2024/01/06 08:44:15;;;;;;;12.55;5.22;;;;;;;-10.89;53.36;99069.31;5084795;28;20054;-60
2024/01/06 08:46:42;;;;;;;18.60;6.38;;;;;;;-10.70;53.78;99077.56;5075304;28;20131;-59
2024/01/06 08:49:08;;;;;;;18.00;5.10;;;;;;;-10.55;52.79;99080.66;5073104;28;20052;-62
2024/01/06 08:51:35;;;;;;;13.73;5.70;;;;;;;-10.57;53.31;99095.66;5066782;28;20073;-61
2024/01/06 08:54:05;;;;;;;15.48;5.20;;;;;;;-10.56;52.52;99089.84;5088147;28;20131;-60
2024/01/06 08:56:33;;;;;;;16.05;5.90;;;;;;;-10.79;52.84;99083.09;5086297;28;20047;-60
2024/01/06 08:58:59;;;;;;;17.58;6.72;;;;;;;-10.67;52.66;99082.69;5063596;28;20052;-59
2024/01/06 09:01:25;;;;;;;20.52;6.43;;;;;;;-10.76;53.65;99035.50;5081039;28;20039;-61
2024/01/06 09:03:52;;;;;;;17.95;6.30;;;;;;;-10.41;52.83;99090.44;5076358;28;20039;-59
2024/01/06 09:06:18;;;;;;;21.63;7.05;;;;;;;-10.22;52.66;99084.47;5086481;28;20066;-56
2024/01/06 09:08:44;;;;;;;15.50;6.63;;;;;;;-10.24;53.07;99081.03;5081019;28;20040;-59
2024/01/06 09:11:10;;;;;;;16.98;5.97;;;;;;;-10.41;52.64;99082.03;5077649;28;20068;-55
2024/01/06 09:13:36;;;;;;;21.10;5.65;;;;;;;-10.61;52.57;99026.03;5086922;28;20135;-55
2024/01/06 09:16:03;;;;;;;15.57;5.57;;;;;;;-10.24;52.38;99071.00;5034254;28;20039;-57
2024/01/06 09:18:29;;;;;;;16.67;6.18;;;;;;;-10.24;52.82;99065.09;5081081;28;20042;-59
2024/01/06 09:20:56;;;;;;;20.05;7.30;;;;;;;-10.18;52.80;99070.38;5072153;28;20055;-58
2024/01/06 09:23:23;;;;;;;20.45;6.97;;;;;;;-10.32;52.69;99064.84;5070961;28;20047;-61
2024/01/06 09:25:51;;;;;;;18.45;6.53;;;;;;;-10.01;52.89;99062.63;5079895;28;20055;-57
2024/01/06 09:28:21;;;;;;;25.13;6.95;;;;;;;-9.86;52.67;99064.81;5084482;28;20036;-59
2024/01/06 09:30:47;;;;;;;21.45;7.00;;;;;;;-9.79;52.58;99073.44;5077776;28;20042;-57
2024/01/06 09:33:15;;;;;;;18.33;6.93;;;;;;;-10.32;51.92;99015.44;5077513;28;20044;-61
2024/01/06 09:35:43;;;;;;;17.13;5.15;;;;;;;-10.49;52.84;99016.47;5061925;28;20068;-62
2024/01/06 09:38:09;;;;;;;16.45;6.03;;;;;;;-10.41;52.42;99057.78;5073056;28;20820;-59
2024/01/06 09:40:42;;;;;;;18.50;7.32;;;;;;;-10.44;53.27;99059.34;5082283;28;20082;-57
2024/01/06 09:43:08;;;;;;;21.88;7.80;;;;;;;-10.48;53.28;99060.03;5071895;28;20048;-57
2024/01/06 09:45:35;;;;;;;22.83;6.60;;;;;;;-10.35;53.10;99039.59;5070301;28;20072;-59
2024/01/06 09:48:11;;;;;;;13.98;6.45;;;;;;;-10.23;53.23;99056.78;5066781;28;20041;-61
2024/01/06 09:50:42;;;;;;;15.77;6.00;;;;;;;-10.75;53.13;99015.50;5101552;27;20090;-56
2024/01/06 09:53:12;;;;;;;15.55;7.32;;;;;;;-10.41;53.57;99056.94;5086257;28;20036;-56
2024/01/06 09:55:38;;;;;;;15.60;6.60;;;;;;;-10.38;53.34;99019.38;5079446;28;20045;-59
2024/01/06 09:58:10;;;;;;;21.95;7.93;;;;;;;-10.01;52.70;99055.09;5080875;28;20036;-60
2024/01/06 10:00:36;;;;;;;17.42;6.50;;;;;;;-9.83;52.36;99039.78;5086567;28;20105;-61
2024/01/06 10:03:03;;;;;;;20.27;6.93;;;;;;;-9.63;52.58;99040.50;5064219;28;20055;-60
2024/01/06 10:05:30;;;;;;;15.32;6.38;;;;;;;-9.46;52.32;99050.31;5074384;28;20570;-62
2024/01/06 10:07:59;;;;;;;21.92;7.18;;;;;;;-9.33;52.36;99048.22;5068395;28;20040;-61
2024/01/06 10:10:27;;;;;;;20.95;7.20;;;;;;;-9.47;52.96;99007.47;5049394;28;20066;-61
2024/01/06 10:12:55;;;;;;;19.00;7.30;;;;;;;-9.17;52.73;99043.75;5076269;28;20033;-57
2024/01/06 10:15:21;;;;;;;14.85;6.47;;;;;;;-9.08;53.17;99031.47;5079348;28;20058;-62
2024/01/06 10:17:47;;;;;;;16.75;7.00;;;;;;;-9.07;52.38;99034.84;5080296;28;20132;-60
2024/01/06 10:20:15;;;;;;;19.63;8.50;;;;;;;-9.04;53.33;99032.41;5091291;28;20134;-62
2024/01/06 10:22:42;;;;;;;16.08;7.65;;;;;;;-9.08;52.77;98997.88;5083681;28;20033;-60
2024/01/06 10:25:10;;;;;;;23.10;8.05;;;;;;;-8.84;52.62;99033.03;5075865;28;20044;-60
2024/01/06 10:27:41;;;;;;;22.00;8.03;;;;;;;-8.77;52.60;99034.94;5077402;28;20043;-59
2024/01/06 10:30:08;;;;;;;24.98;7.63;;;;;;;-8.77;52.58;99027.38;5078539;28;20096;-54
2024/01/06 10:32:36;;;;;;;19.35;8.18;;;;;;;-8.78;52.33;99031.56;5072208;28;20570;-57
2024/01/06 10:35:06;;;;;;;19.58;7.80;;;;;;;-8.85;52.49;99021.28;5052727;28;20045;-61
2024/01/06 10:37:32;;;;;;;24.48;7.93;;;;;;;-8.90;52.60;99020.28;5080743;28;20044;-55
2024/01/06 10:40:09;;;;;;;20.75;8.38;;;;;;;-9.07;52.89;98987.88;5061286;28;20145;-57
2024/01/06 10:42:36;;;;;;;19.10;7.25;;;;;;;-8.88;52.44;99013.59;5084309;28;20439;-61
2024/01/06 10:45:03;;;;;;;23.67;9.48;;;;;;;-8.89;52.75;99015.25;5064331;28;20048;-67
2024/01/06 10:47:32;;;;;;;25.67;9.73;;;;;;;-9.16;52.68;98969.94;5077805;28;20040;-57
2024/01/06 10:49:59;;;;;;;23.00;9.50;;;;;;;-8.94;53.03;99001.69;5075992;28;21628;-58
2024/01/06 10:52:27;;;;;;;26.60;10.32;;;;;;;-9.17;53.10;98977.47;5075046;28;20043;-58
2024/01/06 10:54:55;;;;;;;24.48;9.65;;;;;;;-8.97;52.79;99011.66;5074781;28;20080;-60
2024/01/06 10:57:23;;;;;;;25.52;9.18;;;;;;;-9.01;53.45;99009.88;5058272;28;20033;-56
2024/01/06 10:59:52;;;;;;;24.13;8.55;;;;;;;-9.00;52.79;99014.06;5065726;28;20075;-59
2024/01/06 11:02:19;;;;;;;22.08;8.25;;;;;;;-9.01;53.24;99008.22;5071207;28;20840;-56
2024/01/06 11:04:50;;;;;;;20.55;9.15;;;;;;;-8.98;52.69;99006.56;5033289;28;20067;-55
2024/01/06 11:07:23;;;;;;;25.60;8.50;;;;;;;-9.19;52.69;98967.34;5080173;28;20032;-56
2024/01/06 11:10:07;;;;;;;29.00;8.88;;;;;;;-8.89;52.70;99002.66;5087070;28;20043;-56
2024/01/06 11:12:33;;;;;;;28.17;9.48;;;;;;;-9.16;52.97;98964.91;5077467;28;20062;-60
2024/01/06 11:15:00;;;;;;;22.42;8.73;;;;;;;-9.15;53.05;99006.03;5080656;28;20048;-56
2024/01/06 11:17:55;;;;;;;20.60;8.73;;;;;;;-9.33;52.37;99008.81;5066191;28;20540;-55
2024/01/06 11:20:23;;;;;;;19.77;7.80;;;;;;;-9.36;53.30;99012.88;5091094;28;20070;-55